createdAt,value
2023-07-11T00:01:05.639Z,11
2023-07-11T00:16:05.904Z,9
2023-07-11T00:31:05.135Z,12
2023-07-11T00:46:05.876Z,11
2023-07-11T01:01:04.917Z,11
2023-07-11T01:16:05.592Z,11
2023-07-11T01:31:04.824Z,11
2023-07-11T01:46:05.813Z,11
2023-07-11T02:01:05.110Z,10
2023-07-11T02:16:05.152Z,10
2023-07-11T02:31:05.405Z,11
2023-07-11T02:46:05.028Z,12
2023-07-11T03:01:05.159Z,11
2023-07-11T03:16:05.834Z,13
2023-07-11T03:31:05.365Z,10
2023-07-11T03:46:04.729Z,12
2023-07-11T04:01:05.442Z,10
2023-07-11T04:16:05.579Z,9
2023-07-11T04:31:05.684Z,9
2023-07-11T04:46:05.330Z,9
2023-07-11T05:01:05.224Z,9
2023-07-11T05:16:05.854Z,9
2023-07-11T05:31:04.611Z,10
2023-07-11T05:46:05.766Z,8
2023-07-11T06:01:04.891Z,7
2023-07-11T06:16:05.406Z,7
2023-07-11T06:31:07.368Z,8
2023-07-11T06:46:05.039Z,7
2023-07-11T07:01:06.633Z,6
2023-07-11T07:16:04.917Z,6
2023-07-11T07:31:05.053Z,5
2023-07-11T07:46:05.240Z,4
2023-07-11T08:01:05.125Z,5
2023-07-11T08:16:15.390Z,5
2023-07-11T08:31:05.391Z,4
2023-07-11T08:46:13.075Z,4
2023-07-11T09:01:05.220Z,5
2023-07-11T09:16:05.056Z,4
2023-07-11T09:31:05.496Z,4
2023-07-11T09:46:05.033Z,4
2023-07-11T10:01:03.749Z,3
2023-07-11T10:16:05.449Z,3
2023-07-11T10:45:24.543Z,2
2023-07-11T11:00:23.456Z,2
2023-07-11T11:15:23.742Z,2
2023-07-11T11:30:24.168Z,2
2023-07-11T12:00:24.077Z,3
2023-07-11T12:15:24.546Z,1
2023-07-11T12:30:24.361Z,1
2023-07-11T12:45:23.814Z,1
2023-07-11T13:00:24.202Z,1
2023-07-11T13:15:24.478Z,1
2023-07-11T13:30:24.600Z,2
2023-07-11T13:45:23.903Z,1
2023-07-11T14:00:25.577Z,1
2023-07-11T14:15:23.698Z,1
2023-07-11T14:30:24.005Z,1
2023-07-11T14:35:41.050Z,1
2023-07-11T14:46:05.709Z,1
2023-07-11T15:01:04.938Z,1
2023-07-11T15:16:04.699Z,1
2023-07-11T15:31:06.099Z,2
2023-07-11T15:46:05.702Z,1
2023-07-11T16:01:05.349Z,1
2023-07-11T16:16:04.889Z,2
2023-07-11T16:31:05.441Z,1
2023-07-11T16:46:05.468Z,1
2023-07-11T17:01:05.288Z,1
2023-07-11T17:16:05.517Z,1
2023-07-11T17:31:05.368Z,1
2023-07-11T17:46:29.529Z,1
2023-07-11T18:01:05.759Z,1
2023-07-11T18:16:04.753Z,1
2023-07-11T18:31:05.248Z,2
2023-07-11T18:46:04.699Z,2
2023-07-11T19:01:05.709Z,2
2023-07-11T19:16:04.690Z,1
2023-07-11T19:45:24.576Z,1
2023-07-11T20:00:23.519Z,1
2023-07-11T20:15:24.091Z,1
2023-07-11T20:30:24.375Z,1
2023-07-11T20:45:24.333Z,1
2023-07-11T21:00:24.223Z,2
2023-07-11T21:15:24.332Z,1
2023-07-11T21:30:24.111Z,4
2023-07-11T21:45:23.985Z,3
2023-07-11T22:00:24.247Z,3
2023-07-11T22:15:24.484Z,3
2023-07-11T22:30:24.594Z,3
2023-07-11T22:45:23.808Z,3
2023-07-11T23:00:24.243Z,3
2023-07-11T23:15:23.601Z,4
2023-07-11T23:30:23.579Z,4
2023-07-11T23:45:23.485Z,4
